Bennion, Utah
Current Conditions -  °F | °C
As of 11:53 AM on Friday 24 Oct 2014 (Local Time) from KSLC Reporting Station
Clear Clear  
Wind Chill: 66°   Ceiling: Unl
Heat Index: 66°   Visibility: 10mi
Dew Point: 41°   Wind: 5mph
Humidity: 40%   Direction: 330°NNW
Pressure: 30.17"   Gusts: NA
Location:  40.6511°N, 112.018°W
Report Text: KSLC 241753Z 33004KT 10SM CLR 19/05 A3017 RMK AO2 SLP184 T01890050 10189 20067 50001
Loading
Personal Weather Stations






























Interactive Weather Map
Tropical Storm Tracking
New forecast layout! Learn more

10-Day Weather Forecast

Advertisements
Track Severe Weather on mobile